createdAt,value
2023-12-05T00:00:39.734Z,8.70
2023-12-05T00:03:06.910Z,11.10
2023-12-05T00:05:34.850Z,9.10
2023-12-05T00:08:01.987Z,10.50
2023-12-05T00:10:29.432Z,11.50
2023-12-05T00:12:56.436Z,10.10
2023-12-05T00:15:23.627Z,9.50
2023-12-05T00:17:50.907Z,11.90
2023-12-05T00:20:18.076Z,9.60
2023-12-05T00:22:45.281Z,8.50
2023-12-05T00:25:14.106Z,8.60
2023-12-05T00:27:41.147Z,7.40
2023-12-05T00:30:08.917Z,8.90
2023-12-05T00:32:36.178Z,7.40
2023-12-05T00:35:03.512Z,11.80
2023-12-05T00:37:30.694Z,9.00
2023-12-05T00:39:57.813Z,7.30
2023-12-05T00:42:25.868Z,7.50
2023-12-05T00:44:53.100Z,9.40
2023-12-05T00:47:20.258Z,11.30
2023-12-05T00:49:47.368Z,9.90
2023-12-05T00:52:14.375Z,9.40
2023-12-05T00:54:41.435Z,9.60
2023-12-05T00:57:08.701Z,8.50
2023-12-05T00:59:35.744Z,9.30
2023-12-05T01:02:03.708Z,11.40
2023-12-05T01:04:31.072Z,10.30
2023-12-05T01:06:58.371Z,11.20
2023-12-05T01:09:25.719Z,9.60
2023-12-05T01:11:53.175Z,11.80
2023-12-05T01:14:20.931Z,11.10
2023-12-05T01:16:48.005Z,10.30
2023-12-05T01:19:15.087Z,10.50
2023-12-05T01:21:42.246Z,11.40
2023-12-05T01:24:09.431Z,11.90
2023-12-05T01:26:36.578Z,9.60
2023-12-05T01:29:04.385Z,8.70
2023-12-05T01:31:31.589Z,8.70
2023-12-05T01:33:58.817Z,9.20
2023-12-05T01:36:28.329Z,9.80
2023-12-05T01:38:56.466Z,9.80
2023-12-05T01:41:23.697Z,11.20
2023-12-05T01:43:50.917Z,7.60
2023-12-05T01:46:18.152Z,10.10
2023-12-05T01:48:46.026Z,9.90
2023-12-05T01:51:13.239Z,9.50
2023-12-05T01:53:41.082Z,10.00
2023-12-05T01:56:09.236Z,10.50
2023-12-05T01:58:36.290Z,11.60
2023-12-05T02:01:04.979Z,12.20
2023-12-05T02:03:32.809Z,13.00
2023-12-05T02:05:59.926Z,12.30
2023-12-05T02:08:29.358Z,12.60
2023-12-05T02:10:56.473Z,12.20
2023-12-05T02:13:23.575Z,10.80
2023-12-05T02:15:58.522Z,12.00
2023-12-05T02:18:29.836Z,12.00
2023-12-05T02:21:01.180Z,9.50
2023-12-05T02:23:49.966Z,9.90
2023-12-05T02:26:37.212Z,11.70
2023-12-05T02:29:04.624Z,10.30
2023-12-05T02:31:32.001Z,11.60
2023-12-05T02:33:59.066Z,11.10
2023-12-05T02:36:41.340Z,9.70
2023-12-05T02:39:14.348Z,10.40
2023-12-05T02:41:43.063Z,11.80
2023-12-05T02:44:12.347Z,9.10
2023-12-05T02:46:42.108Z,8.60
2023-12-05T02:49:09.317Z,11.70
2023-12-05T02:51:36.722Z,10.80
2023-12-05T02:54:07.937Z,10.80
2023-12-05T02:56:36.708Z,13.40
2023-12-05T02:59:04.707Z,12.00
2023-12-05T03:01:34.071Z,10.50
2023-12-05T03:04:01.046Z,12.40
2023-12-05T03:06:29.859Z,14.00
2023-12-05T03:08:59.732Z,14.60
2023-12-05T03:11:29.155Z,11.90
2023-12-05T03:13:56.611Z,10.90
2023-12-05T03:16:23.652Z,13.10
2023-12-05T03:18:50.958Z,12.50
2023-12-05T03:21:19.334Z,11.00
2023-12-05T03:23:47.193Z,12.20
2023-12-05T03:26:19.552Z,12.20
2023-12-05T03:28:46.968Z,14.10
2023-12-05T03:31:14.032Z,12.30
2023-12-05T03:33:41.130Z,12.90
2023-12-05T03:36:08.883Z,12.40
2023-12-05T03:38:38.552Z,11.30
2023-12-05T03:41:06.240Z,11.60
2023-12-05T03:43:33.196Z,14.90
2023-12-05T03:46:00.313Z,15.20
2023-12-05T03:48:27.776Z,12.60
2023-12-05T03:50:54.900Z,9.90
2023-12-05T03:53:22.669Z,12.40
2023-12-05T03:55:49.756Z,10.80
2023-12-05T03:58:17.601Z,14.20
2023-12-05T04:00:44.903Z,10.80
2023-12-05T04:03:12.243Z,15.70
2023-12-05T04:05:42.142Z,11.20
2023-12-05T04:08:09.450Z,13.10
2023-12-05T04:10:36.603Z,14.90
2023-12-05T04:13:03.752Z,14.80
2023-12-05T04:15:30.881Z,13.00
2023-12-05T04:17:58.101Z,16.20
2023-12-05T04:20:25.407Z,15.10
2023-12-05T04:22:52.378Z,14.20
2023-12-05T04:25:19.396Z,13.00
2023-12-05T04:27:46.521Z,13.30
2023-12-05T04:30:13.949Z,15.90
2023-12-05T04:32:41.176Z,14.90
2023-12-05T04:35:08.495Z,11.20
2023-12-05T04:37:38.161Z,14.40
2023-12-05T04:40:06.963Z,15.00
2023-12-05T04:42:34.292Z,14.60
2023-12-05T04:45:01.621Z,13.00
2023-12-05T04:47:30.655Z,14.60
2023-12-05T04:49:57.762Z,14.50
2023-12-05T04:52:25.805Z,13.50
2023-12-05T04:54:52.877Z,12.20
2023-12-05T04:57:20.748Z,14.40
2023-12-05T04:59:48.069Z,18.10
2023-12-05T05:02:15.189Z,13.50
2023-12-05T05:04:42.667Z,15.90
2023-12-05T05:07:10.037Z,37.70
2023-12-05T05:09:38.010Z,49.30
2023-12-05T05:12:09.447Z,50.50
2023-12-05T05:14:37.620Z,43.20
2023-12-05T05:17:10.403Z,40.20
2023-12-05T05:19:37.608Z,32.60
2023-12-05T05:22:05.338Z,26.90
2023-12-05T05:24:34.182Z,29.00
2023-12-05T05:27:01.340Z,27.30
2023-12-05T05:29:28.617Z,29.10
2023-12-05T05:31:55.855Z,29.30
2023-12-05T05:34:23.281Z,24.30
2023-12-05T05:36:50.592Z,24.50
2023-12-05T05:39:18.027Z,24.00
2023-12-05T05:41:45.211Z,22.10
2023-12-05T05:44:12.254Z,22.00
2023-12-05T05:46:39.334Z,19.00
2023-12-05T05:49:06.741Z,18.10
2023-12-05T05:51:35.026Z,14.70
2023-12-05T05:54:02.188Z,13.10
2023-12-05T05:56:29.496Z,13.90
2023-12-05T05:58:56.561Z,15.50
2023-12-05T06:01:23.692Z,16.40
2023-12-05T06:03:50.830Z,19.70
2023-12-05T06:06:18.677Z,17.90
2023-12-05T06:08:45.950Z,19.30
2023-12-05T06:11:14.377Z,15.40
2023-12-05T06:13:41.469Z,18.60
2023-12-05T06:16:09.306Z,19.10
2023-12-05T06:18:36.627Z,17.30
2023-12-05T06:21:04.076Z,18.10
2023-12-05T06:23:31.339Z,19.30
2023-12-05T06:25:58.415Z,16.30
2023-12-05T06:28:26.094Z,16.10
2023-12-05T06:30:53.602Z,16.70
2023-12-05T06:33:21.151Z,15.10
2023-12-05T06:35:48.488Z,17.40
2023-12-05T06:38:15.745Z,16.70
2023-12-05T06:40:43.060Z,15.10
2023-12-05T06:43:10.264Z,15.20
2023-12-05T06:45:37.635Z,14.40
2023-12-05T06:48:05.907Z,12.80
2023-12-05T06:50:33.323Z,14.30
2023-12-05T06:53:01.444Z,15.90
2023-12-05T06:55:28.647Z,25.80
2023-12-05T06:57:55.847Z,64.60
2023-12-05T07:00:24.156Z,82.90
2023-12-05T07:02:51.458Z,68.40
2023-12-05T07:05:18.760Z,68.00
2023-12-05T07:07:46.138Z,48.30
2023-12-05T07:10:13.235Z,63.10
2023-12-05T07:12:40.645Z,86.30
2023-12-05T07:15:09.917Z,77.80
2023-12-05T07:17:38.879Z,66.40
2023-12-05T07:20:07.853Z,95.70
2023-12-05T07:22:35.059Z,66.60
2023-12-05T07:25:02.516Z,35.40
2023-12-05T07:27:30.102Z,26.00
2023-12-05T07:29:57.138Z,23.70
2023-12-05T07:32:24.738Z,28.10
2023-12-05T07:34:52.381Z,50.20
2023-12-05T07:37:19.798Z,49.90
2023-12-05T07:39:46.983Z,38.70
2023-12-05T07:42:14.300Z,41.70
2023-12-05T07:44:41.453Z,50.50
2023-12-05T07:47:09.013Z,48.50
2023-12-05T07:49:36.095Z,50.00
2023-12-05T07:52:05.723Z,52.90
2023-12-05T07:54:33.075Z,45.70
2023-12-05T07:57:00.396Z,53.10
2023-12-05T07:59:27.442Z,60.20
2023-12-05T08:01:54.539Z,83.80
2023-12-05T08:04:22.064Z,116.90
2023-12-05T08:06:49.514Z,92.40
2023-12-05T08:09:17.332Z,58.00
2023-12-05T08:11:44.437Z,45.90
2023-12-05T08:14:11.573Z,51.80
2023-12-05T08:16:41.238Z,51.90
2023-12-05T08:19:08.707Z,44.90
2023-12-05T08:21:36.070Z,45.40
2023-12-05T08:24:03.509Z,48.10
2023-12-05T08:26:32.494Z,33.60
2023-12-05T08:28:59.907Z,20.30
2023-12-05T08:31:28.019Z,20.70
2023-12-05T08:33:55.293Z,30.50
2023-12-05T08:36:22.452Z,33.40
2023-12-05T08:38:49.527Z,34.10
2023-12-05T08:41:23.114Z,35.70
2023-12-05T08:43:50.219Z,38.00
2023-12-05T08:46:17.571Z,44.50
2023-12-05T08:48:44.965Z,34.00
2023-12-05T08:51:13.737Z,28.70
2023-12-05T08:56:09.544Z,19.40
2023-12-05T08:58:38.078Z,17.30
2023-12-05T09:01:06.107Z,16.80
2023-12-05T09:03:33.716Z,21.90
2023-12-05T09:06:01.053Z,14.10
2023-12-05T09:08:29.234Z,19.30
2023-12-05T09:10:58.731Z,23.40
2023-12-05T09:13:26.722Z,19.90
2023-12-05T09:15:53.847Z,20.10
2023-12-05T09:18:21.722Z,15.50
2023-12-05T09:20:49.550Z,24.00
2023-12-05T09:23:16.908Z,28.70
2023-12-05T09:25:44.441Z,37.80
2023-12-05T09:28:11.383Z,39.80
2023-12-05T09:30:39.468Z,41.40
2023-12-05T09:33:06.611Z,26.10
2023-12-05T09:35:34.519Z,20.40
2023-12-05T09:38:02.001Z,21.50
2023-12-05T09:40:29.152Z,25.90
2023-12-05T09:42:58.715Z,23.00
2023-12-05T09:45:28.782Z,26.10
2023-12-05T09:47:56.083Z,27.80
2023-12-05T09:50:23.798Z,30.90
2023-12-05T09:52:51.008Z,31.60
2023-12-05T09:55:18.431Z,32.70
2023-12-05T09:57:45.599Z,34.20
2023-12-05T10:00:13.181Z,27.90
2023-12-05T10:02:42.297Z,26.60
2023-12-05T10:05:10.319Z,26.50
2023-12-05T10:07:38.779Z,25.60
2023-12-05T10:10:06.727Z,28.80
2023-12-05T10:12:34.137Z,31.10
2023-12-05T10:15:01.836Z,33.10
2023-12-05T10:17:31.115Z,36.90
2023-12-05T10:19:58.305Z,45.50
2023-12-05T10:22:27.298Z,45.70
2023-12-05T10:24:57.385Z,49.90
2023-12-05T10:27:24.448Z,48.20
2023-12-05T10:29:51.713Z,40.90
2023-12-05T10:32:18.996Z,38.00
2023-12-05T10:34:50.203Z,47.60
2023-12-05T10:37:28.055Z,50.20
2023-12-05T10:39:57.867Z,45.10
2023-12-05T10:44:55.919Z,45.50
2023-12-05T10:47:24.454Z,57.50
2023-12-05T10:49:51.767Z,47.40
2023-12-05T10:52:18.868Z,30.90
2023-12-05T10:54:46.064Z,34.70
2023-12-05T10:57:13.345Z,33.00
2023-12-05T10:59:41.588Z,35.80
2023-12-05T11:02:18.272Z,43.70
2023-12-05T11:04:45.489Z,49.90
2023-12-05T11:07:12.705Z,62.60
2023-12-05T11:09:43.979Z,59.30
2023-12-05T11:12:11.674Z,61.30
2023-12-05T11:14:42.540Z,38.10
2023-12-05T11:17:13.057Z,49.70
2023-12-05T11:19:43.798Z,56.10
2023-12-05T11:22:43.657Z,48.70
2023-12-05T11:25:32.943Z,40.00
2023-12-05T11:28:23.518Z,36.80
2023-12-05T11:31:02.875Z,28.20
2023-12-05T11:33:48.345Z,28.20
2023-12-05T11:36:26.660Z,38.00
2023-12-05T11:38:55.130Z,23.30
2023-12-05T11:41:22.330Z,23.40
2023-12-05T11:44:15.099Z,25.80
2023-12-05T11:46:42.989Z,30.00
2023-12-05T11:49:10.106Z,27.90
2023-12-05T11:51:38.136Z,26.80
2023-12-05T11:54:08.281Z,22.70
2023-12-05T11:56:35.797Z,20.20
2023-12-05T11:59:29.250Z,21.10
2023-12-05T12:01:56.224Z,26.00
2023-12-05T12:04:23.794Z,22.10
2023-12-05T12:06:51.331Z,26.90
2023-12-05T12:09:18.384Z,42.00
2023-12-05T12:11:45.419Z,46.00
2023-12-05T12:14:16.850Z,44.40
2023-12-05T12:16:44.424Z,40.60
2023-12-05T12:19:13.646Z,37.20
2023-12-05T12:21:41.193Z,32.10
2023-12-05T12:24:08.940Z,33.20
2023-12-05T12:26:36.110Z,50.30
2023-12-05T12:29:09.701Z,48.10
2023-12-05T12:31:37.025Z,66.40
2023-12-05T12:34:09.675Z,61.90
2023-12-05T12:36:38.823Z,53.00
2023-12-05T12:39:06.277Z,45.60
2023-12-05T12:41:33.227Z,41.30
2023-12-05T12:44:00.623Z,46.60
2023-12-05T12:46:27.736Z,51.40
2023-12-05T12:48:58.121Z,45.20
2023-12-05T12:51:25.489Z,42.80
2023-12-05T12:53:52.474Z,32.80
2023-12-05T12:56:19.933Z,32.80
2023-12-05T12:58:48.178Z,46.50
2023-12-05T13:01:15.413Z,32.50
2023-12-05T13:03:46.386Z,44.40
2023-12-05T13:06:13.907Z,62.90
2023-12-05T13:08:41.360Z,46.60
2023-12-05T13:11:08.721Z,41.20
2023-12-05T13:13:36.075Z,47.50
2023-12-05T13:16:03.885Z,42.10
2023-12-05T13:18:46.818Z,29.10
2023-12-05T13:21:14.559Z,29.60
2023-12-05T13:23:45.392Z,34.80
2023-12-05T13:26:12.735Z,38.80
2023-12-05T13:28:40.022Z,34.50
2023-12-05T13:31:07.840Z,30.60
2023-12-05T13:33:35.720Z,30.20
2023-12-05T13:36:04.406Z,25.70
2023-12-05T13:38:31.571Z,21.50
2023-12-05T13:40:58.711Z,22.60
2023-12-05T13:43:25.817Z,19.90
2023-12-05T13:45:53.929Z,29.40
2023-12-05T13:48:21.211Z,32.10
2023-12-05T13:50:48.350Z,34.60
2023-12-05T13:53:15.562Z,31.50
2023-12-05T13:55:42.728Z,34.00
2023-12-05T13:58:11.405Z,50.70
2023-12-05T14:00:39.021Z,61.70
2023-12-05T14:03:06.748Z,55.70
2023-12-05T14:05:34.224Z,61.80
2023-12-05T14:08:01.814Z,41.80
2023-12-05T14:10:29.063Z,43.90
2023-12-05T14:12:56.276Z,39.80
2023-12-05T14:15:25.868Z,38.80
2023-12-05T14:20:20.534Z,39.50
2023-12-05T14:22:47.818Z,39.70
2023-12-05T14:25:15.150Z,46.30
2023-12-05T14:27:42.326Z,44.70
2023-12-05T14:30:09.704Z,51.40
2023-12-05T14:32:38.066Z,57.20
2023-12-05T14:35:05.844Z,54.20
2023-12-05T14:37:33.062Z,53.70
2023-12-05T14:40:00.687Z,58.60
2023-12-05T14:42:28.174Z,62.60
2023-12-05T14:44:55.465Z,42.40
2023-12-05T14:47:23.178Z,35.90
2023-12-05T14:49:50.557Z,51.20
2023-12-05T14:52:17.983Z,57.00
2023-12-05T14:54:45.610Z,45.80
2023-12-05T14:57:12.727Z,55.00
2023-12-05T14:59:39.870Z,56.50
2023-12-05T15:02:08.572Z,59.90
2023-12-05T15:04:36.477Z,63.40
2023-12-05T15:07:03.835Z,59.30
2023-12-05T15:09:33.505Z,53.60
2023-12-05T15:12:00.563Z,58.00
2023-12-05T15:14:27.851Z,49.40
2023-12-05T15:16:54.993Z,46.80
2023-12-05T15:19:22.136Z,60.90
2023-12-05T15:21:50.460Z,62.50
2023-12-05T15:24:18.172Z,56.20
2023-12-05T15:26:47.749Z,46.00
2023-12-05T15:29:17.962Z,40.90
2023-12-05T15:31:49.682Z,43.30
2023-12-05T15:34:19.416Z,42.70
2023-12-05T15:36:46.877Z,44.80
2023-12-05T15:39:14.287Z,48.70
2023-12-05T15:41:42.584Z,53.00
2023-12-05T15:44:09.819Z,57.00
2023-12-05T15:46:37.047Z,54.90
2023-12-05T15:49:04.340Z,58.70
2023-12-05T15:51:36.520Z,49.30
2023-12-05T15:54:04.564Z,52.60
2023-12-05T15:56:31.735Z,51.00
2023-12-05T15:58:59.675Z,46.30
2023-12-05T16:01:27.273Z,41.90
2023-12-05T16:03:54.807Z,41.50
2023-12-05T16:06:21.866Z,32.10
2023-12-05T16:08:49.063Z,26.60
2023-12-05T16:11:16.797Z,36.70
2023-12-05T16:13:44.492Z,55.60
2023-12-05T16:16:11.775Z,48.50
2023-12-05T16:18:39.123Z,43.40
2023-12-05T16:21:09.664Z,45.20
2023-12-05T16:23:38.510Z,49.40
2023-12-05T16:26:06.307Z,44.40
2023-12-05T16:28:35.227Z,36.60
2023-12-05T16:31:02.977Z,44.80
2023-12-05T16:33:30.379Z,38.10
2023-12-05T16:36:00.614Z,41.20
2023-12-05T16:38:28.110Z,40.60
2023-12-05T16:40:55.317Z,42.20
2023-12-05T16:43:22.569Z,42.90
2023-12-05T16:45:50.697Z,36.30
2023-12-05T16:48:18.096Z,40.00
2023-12-05T16:50:45.389Z,38.20
2023-12-05T16:53:12.721Z,34.90
2023-12-05T16:55:39.972Z,34.20
2023-12-05T16:58:07.047Z,32.30
2023-12-05T17:00:34.381Z,36.40
2023-12-05T17:03:01.958Z,38.30
2023-12-05T17:05:29.263Z,39.90
2023-12-05T17:07:56.532Z,41.10
2023-12-05T17:10:23.894Z,41.00
2023-12-05T17:12:50.990Z,34.40
2023-12-05T17:15:18.392Z,46.00
2023-12-05T17:17:45.508Z,27.30
2023-12-05T17:20:13.179Z,24.20
2023-12-05T17:22:40.351Z,39.10
2023-12-05T17:25:08.382Z,39.90
2023-12-05T17:27:35.825Z,38.50
2023-12-05T17:30:03.499Z,42.50
2023-12-05T17:32:31.155Z,52.20
2023-12-05T17:34:58.381Z,48.60
2023-12-05T17:37:32.250Z,46.40
2023-12-05T17:40:00.012Z,42.70
2023-12-05T17:42:27.828Z,34.10
2023-12-05T17:44:55.219Z,33.40
2023-12-05T17:47:22.847Z,32.60
2023-12-05T17:49:50.830Z,35.60
2023-12-05T17:52:18.047Z,25.20
2023-12-05T17:54:45.152Z,30.00
2023-12-05T17:57:12.384Z,27.90
2023-12-05T17:59:39.645Z,26.10
2023-12-05T18:02:06.821Z,27.30
2023-12-05T18:04:34.182Z,25.50
2023-12-05T18:07:50.263Z,24.60
2023-12-05T18:09:48.880Z,25.60
2023-12-05T18:12:17.657Z,28.60
2023-12-05T18:14:44.993Z,28.60
2023-12-05T18:17:12.330Z,32.10
2023-12-05T18:19:44.872Z,27.70
2023-12-05T18:22:13.876Z,27.40
2023-12-05T18:24:41.603Z,33.60
2023-12-05T18:27:09.119Z,21.60
2023-12-05T18:29:36.121Z,22.80
2023-12-05T18:32:04.138Z,32.00
2023-12-05T18:34:31.650Z,22.10
2023-12-05T18:36:58.941Z,34.90
2023-12-05T18:39:29.595Z,25.80
2023-12-05T18:41:58.029Z,25.50
2023-12-05T18:44:25.179Z,34.90
2023-12-05T18:46:53.079Z,32.00
2023-12-05T18:49:22.101Z,34.60
2023-12-05T18:51:50.082Z,37.40
2023-12-05T18:54:17.704Z,58.40
2023-12-05T18:56:46.289Z,56.90
2023-12-05T18:59:13.712Z,39.00
2023-12-05T19:01:40.972Z,37.60
2023-12-05T19:04:08.558Z,32.10
2023-12-05T19:06:36.568Z,29.40
2023-12-05T19:09:05.336Z,33.10
2023-12-05T19:11:32.730Z,36.60
2023-12-05T19:13:59.982Z,39.70
2023-12-05T19:16:27.430Z,37.70
2023-12-05T19:18:55.279Z,44.10
2023-12-05T19:21:22.892Z,37.50
2023-12-05T19:23:50.040Z,34.70
2023-12-05T19:26:25.174Z,32.80
2023-12-05T19:28:57.452Z,27.70
2023-12-05T19:31:27.668Z,25.50
2023-12-05T19:33:55.597Z,31.60
2023-12-05T19:36:22.843Z,33.10
2023-12-05T19:38:51.490Z,34.30
2023-12-05T19:41:18.613Z,37.80
2023-12-05T19:43:47.293Z,33.50
2023-12-05T19:46:14.744Z,32.70
2023-12-05T19:48:45.360Z,32.70
2023-12-05T19:51:12.827Z,33.90
2023-12-05T19:53:40.060Z,36.20
2023-12-05T19:56:07.720Z,31.70
2023-12-05T19:58:37.036Z,27.80
2023-12-05T20:01:04.570Z,31.60
2023-12-05T20:03:32.134Z,36.20
2023-12-05T20:06:00.302Z,47.80
2023-12-05T20:08:27.554Z,31.00
2023-12-05T20:10:54.744Z,27.90
2023-12-05T20:13:22.064Z,24.60
2023-12-05T20:15:49.791Z,26.00
2023-12-05T20:18:17.172Z,29.50
2023-12-05T20:20:44.837Z,22.00
2023-12-05T20:23:12.296Z,25.80
2023-12-05T20:25:39.551Z,25.10
2023-12-05T20:28:06.690Z,19.30
2023-12-05T20:30:34.020Z,20.50
2023-12-05T20:33:01.299Z,20.70
2023-12-05T20:35:28.550Z,25.00
2023-12-05T20:37:56.141Z,21.80
2023-12-05T20:40:23.185Z,25.10
2023-12-05T20:42:50.459Z,26.30
2023-12-05T20:45:18.278Z,25.30
2023-12-05T20:47:45.414Z,26.70
2023-12-05T20:50:12.544Z,26.70
2023-12-05T20:52:39.847Z,25.80
2023-12-05T20:55:09.227Z,27.40
2023-12-05T20:57:36.397Z,21.50
2023-12-05T21:00:04.703Z,22.60
2023-12-05T21:02:32.932Z,25.30
2023-12-05T21:05:00.212Z,28.40
2023-12-05T21:07:29.589Z,20.50
2023-12-05T21:09:58.516Z,21.40
2023-12-05T21:12:25.818Z,32.60
2023-12-05T21:14:53.090Z,24.70
2023-12-05T21:17:20.484Z,21.20
2023-12-05T21:19:47.909Z,23.90
2023-12-05T21:22:15.207Z,29.00
2023-12-05T21:24:42.541Z,23.40
2023-12-05T21:27:09.775Z,26.00
2023-12-05T21:29:37.214Z,25.30
2023-12-05T21:32:04.758Z,22.20
2023-12-05T21:34:33.554Z,24.50
2023-12-05T21:37:00.946Z,24.40
2023-12-05T21:39:30.420Z,23.60
2023-12-05T21:41:57.819Z,24.10
2023-12-05T21:44:24.926Z,27.30
2023-12-05T21:46:51.965Z,25.80
2023-12-05T21:49:19.665Z,29.20
2023-12-05T21:51:46.988Z,20.50
2023-12-05T21:54:14.349Z,21.70
2023-12-05T21:56:41.497Z,25.70
2023-12-05T21:59:08.744Z,21.20
2023-12-05T22:01:35.942Z,17.50
2023-12-05T22:04:03.818Z,20.10
2023-12-05T22:06:31.572Z,26.20
2023-12-05T22:08:58.704Z,27.40
2023-12-05T22:11:25.818Z,20.80
2023-12-05T22:13:53.079Z,21.30
2023-12-05T22:16:20.218Z,22.80
2023-12-05T22:18:47.525Z,20.00
2023-12-05T22:21:15.104Z,20.50
2023-12-05T22:23:42.597Z,21.50
2023-12-05T22:26:10.325Z,20.40
2023-12-05T22:28:37.649Z,19.40
2023-12-05T22:31:06.188Z,19.40
2023-12-05T22:33:33.652Z,17.10
2023-12-05T22:36:00.834Z,18.20
2023-12-05T22:38:28.142Z,19.20
2023-12-05T22:40:55.977Z,14.00
2023-12-05T22:43:23.048Z,13.90
2023-12-05T22:45:50.175Z,17.10
2023-12-05T22:48:17.631Z,18.10
2023-12-05T22:50:44.986Z,18.80
2023-12-05T22:53:11.990Z,16.90
2023-12-05T22:55:41.975Z,16.20
2023-12-05T22:58:09.521Z,20.50
2023-12-05T23:00:37.156Z,18.60
2023-12-05T23:03:04.432Z,16.60
2023-12-05T23:05:31.632Z,16.30
2023-12-05T23:07:58.849Z,16.40
2023-12-05T23:10:26.154Z,16.50
2023-12-05T23:12:53.832Z,13.90
2023-12-05T23:15:21.178Z,12.20
2023-12-05T23:17:48.259Z,14.50
2023-12-05T23:20:15.577Z,11.20
2023-12-05T23:23:31.426Z,12.80
2023-12-05T23:25:58.609Z,16.70
2023-12-05T23:28:26.303Z,12.30
2023-12-05T23:30:54.418Z,15.60
2023-12-05T23:33:21.613Z,18.40
2023-12-05T23:35:48.781Z,15.00
2023-12-05T23:38:15.959Z,17.80
2023-12-05T23:40:43.542Z,20.20
2023-12-05T23:43:10.572Z,16.30
2023-12-05T23:45:38.087Z,18.50
2023-12-05T23:48:05.459Z,16.50
2023-12-05T23:50:32.784Z,21.70
2023-12-05T23:52:59.724Z,21.30
2023-12-05T23:55:26.922Z,21.20
2023-12-05T23:57:54.235Z,19.00
